• Join FlightAware (Why Join?)
  • Login
  • US Flag 
12:36PM EDT


 

Airport Tracker/Info


-or-


 

Live Flight TrackerFlight Track Log ✈ RAX500 ✈ 03-May-2013 ✈ KPTK - KIAD

Flight Track Log - Related Links

Times and Time Zones

All times are in EDT time to prevent confusion due to time zone crossing. See the RAX500 flight status page for this flight to view local times or setup timezone preferences in your user account.

Time Position Orientation Groundspeed Altitude Reporting Facility
EDT Latitude Longitude Course Direction KTS MPH feet Rate Location/Type
09:19AM 42.6664 -83.3589 78° East 182 209 2,700  Level Cleveland Center
09:20AM 42.6786 -83.2831 78° East 241 277 4,400 2,160 Climbing Cleveland Center
09:20AM 42.6947 -83.2161 72° East 267 307 6,200 2,940 Climbing Cleveland Center
09:20AM 42.6914 -83.1878 99° East 264 304 7,300 3,060 Climbing Cleveland Center
09:22AM 42.6472 -83.1097 128° Southeast 272 313 10,300 2,340 Climbing Cleveland Center
09:23AM 42.5967 -83.0314 131° Southeast 272 313 12,100 900 Climbing Cleveland Center
09:23AM 42.5381 -82.9475 133° Southeast 288 331 12,200 600 Climbing Cleveland Center
09:25AM 42.4753 -82.8578 133° Southeast 308 354 13,400 1,140 Climbing Cleveland Center
09:26AM 42.4183 -82.7742 133° Southeast 324 373 14,600 1,500 Climbing Cleveland Center
09:26AM 42.3536 -82.6736 131° Southeast 335 386 16,400 1,620 Climbing Cleveland Center
09:28AM 42.2908 -82.5678 129° Southeast 355 409 17,900 1,560 Climbing Cleveland Center
09:29AM 42.1481 -82.3783 135° Southeast 356 410 21,200 1,560 Climbing Cleveland Center
09:31AM 42.0575 -82.3086 150° Southeast 366 421 22,600 1,380 Climbing Cleveland Center
09:32AM 41.9647 -82.2364 150° Southeast 378 435 24,100 1,320 Climbing Cleveland Center
09:32AM 41.8656 -82.1753 155° Southeast 388 447 25,300 1,320 Climbing Cleveland Center
09:34AM 41.7581 -82.0975 152° Southeast 394 453 26,800 1,500 Climbing Cleveland Center
09:34AM 41.6653 -82.0258 150° Southeast 394 453 28,300 1,320 Climbing Cleveland Center
09:35AM 41.5681 -81.9597 153° Southeast 389 448 29,500 1,080 Climbing Cleveland Center
09:36AM 41.4689 -81.8828 150° Southeast 395 455 30,500 900 Climbing Cleveland Center
09:37AM 41.3761 -81.8033 147° Southeast 400 460 31,400 900 Climbing Cleveland Center
09:38AM 41.2767 -81.7297 151° Southeast 400 460 32,300 720 Climbing Cleveland Center
09:40AM 41.1794 -81.6481 148° Southeast 400 460 32,900 360 Climbing Cleveland Center
09:40AM 41.0697 -81.5719 152° Southeast 428 493 33,100 540 Climbing Cleveland Center
09:41AM 40.9789 -81.4742 141° Southeast 436 502 34,000 840 Climbing Cleveland Center
09:43AM 40.8961 -81.3633 135° Southeast 423 487 34,800 480 Climbing Cleveland Center
09:43AM 40.8094 -81.2553 137° Southeast 423 487 35,000  Climbing Cleveland Center
09:45AM 40.7139 -81.1556 142° Southeast 429 494 34,900  Descending Cleveland Center
09:46AM 40.6269 -81.0672 142° Southeast 439 505 35,000  Climbing Cleveland Center
09:46AM 40.5253 -80.9519 139° Southeast 439 505 35,000  Level Cleveland Center
09:47AM 40.4294 -80.8531 142° Southeast 445 512 35,000  Level Cleveland Center
09:49AM 40.3317 -80.7464 140° Southeast 445 512 35,000  Level Cleveland Center
09:49AM 40.2464 -80.6511 140° Southeast 445 512 35,000  Level Cleveland Center
09:51AM 40.1525 -80.5450 139° Southeast 450 518 35,000  Level Cleveland Center
09:52AM 40.0567 -80.4367 139° Southeast 455 524 35,000 -120 Level Cleveland Center
09:52AM 39.9647 -80.3283 138° Southeast 455 524 34,800 -300 Descending Cleveland Center
09:53AM 39.8686 -80.2153 138° Southeast 455 524 34,500 -660 Descending Cleveland Center
09:54AM 39.7744 -80.1050 138° Southeast 460 529 33,500 -1,440 Descending Cleveland Center
09:55AM 39.6781 -79.9950 139° Southeast 460 529 31,700 -1,740 Descending Cleveland Center
09:57AM 39.5450 -79.8411 138° Southeast 460 529 29,400 -1,500 Descending Washington Center
09:58AM 39.5003 -79.6850 110° East 450 518 28,100 -1,140 Descending Washington Center
09:59AM 39.4914 -79.5153 94° East 445 512 27,200 -600 Descending Washington Center
10:00AM 39.4758 -79.3475 97° East 463 533 27,000 -120 Descending Washington Center
10:01AM 39.4356 -79.1681 106° East 469 540 27,000 -120 Level Washington Center
10:02AM 39.4006 -79.0106 106° East 464 534 26,800 -1,320 Descending Washington Center
10:03AM 39.3714 -78.8617 104° East 451 519 24,400 -3,240 Descending Washington Center
10:04AM 39.3442 -78.7100 103° East 439 505 20,300 -4,260 Descending Washington Center
10:05AM 39.3164 -78.5667 104° East 428 493 16,100 -3,720 Descending Washington Center
10:06AM 39.2986 -78.4372 100° East 395 455 13,100 -1,860 Descending Washington Center
10:07AM 39.2742 -78.3289 106° East 348 400 12,400 -1,080 Descending Washington Center
10:08AM 39.2200 -78.2358 127° Southeast 313 360 11,000 -1,440 Descending Washington Center
10:09AM 39.2178 -78.1394 92° East 281 323 9,600 -2,220 Descending Washington Center
10:10AM 39.2197 -78.0483 88° East 269 310 6,700 -2,340 Descending Washington Center
10:11AM 39.2217 -77.9572 88° East 259 298 5,100 -900 Descending Washington Center
10:12AM 39.2253 -77.8689 87° East 247 284 5,000 -60 Descending Washington Center
10:13AM 39.2292 -77.7806 87° East 247 284 5,000  Level Washington Center
10:14AM 39.2161 -77.6972 101° East 241 277 5,000 -540 Level Washington Center
10:15AM 39.2050 -77.6164 100° East 235 270 4,000 -840 Descending Washington Center
10:16AM 39.1833 -77.5667 119° Southeast 211 243 3,600 -600 Descending Potomac TRACON
10:17AM 39.1333 -77.5000 134° Southeast 215 247 2,900 -720 Descending Potomac TRACON
10:18AM 39.0833 -77.4667 153° Southeast 211 243 2,200 -660 Descending Potomac TRACON
10:19AM 39.0333 -77.4667 180° South 162 186 1,600 -720 Descending Potomac TRACON
10:20AM 39.0000 -77.4667 180° South 144 166 800 -780 Descending Potomac TRACON
10:22AM 38.9474 -77.4599 165° South  Level Estimated
10:29AM 38.9474 -77.4599 165° South  Level Estimated